ADDS METAR Data INFO
IDs: Format: Raw Decoded Include TAF

Data at: 0918 UTC 13 Dec 2017

KOGA 130855Z AUTO 32024G29KT 10SM CLR 10/M11 A2990 RMK AO2 T01001112
KOGA 130835Z AUTO 31018G21KT 10SM CLR 10/M11 A2990 RMK AO2 T00961107
KOGA 130815Z AUTO 30012KT 10SM CLR 09/M10 A2990 RMK AO2 T00901105
KOGA 130755Z AUTO 31010KT 10SM CLR 09/M10 A2990 RMK AO2 T00911101
KOGA 130735Z AUTO 31013G18KT 10SM CLR 10/M10 A2990 RMK AO2 T00981097
KOGA 130715Z AUTO 29012G19KT 10SM CLR 07/M09 A2991 RMK AO2 T00661095
KOGA 130655Z AUTO 25009KT 10SM CLR 04/M10 A2991 RMK AO2 T00401097 401781105
KOGA 130635Z AUTO 26009G17KT 10SM CLR 08/M10 A2992 RMK AO2 T00761098
KOGA 130615Z AUTO 30018G22KT 10SM CLR 10/M09 A2992 RMK AO2 T01011095
KOGA 130555Z AUTO 28006KT 10SM CLR 02/M09 A2993 RMK AO2 T00161095 10085 20016
KOGA 130535Z AUTO 24010KT 10SM CLR 03/M09 A2993 RMK AO2 T00301095
KOGA 130515Z AUTO 25010KT 10SM CLR 02/M09 A2994 RMK AO2 T00181095
KOGA 130455Z AUTO 27006KT 10SM CLR 02/M09 A2994 RMK AO2 T00221090
KOGA 130435Z AUTO 25008KT 10SM CLR 03/M09 A2994 RMK AO2 T00331090
KOGA 130415Z AUTO 25009KT 10SM CLR 04/M09 A2994 RMK AO2 T00371090
KOGA 130355Z AUTO 27007KT 10SM CLR 03/M09 A2994 RMK AO2 T00321087
KOGA 130335Z AUTO 25007KT 10SM CLR 03/M09 A2994 RMK AO2 T00251087
KOGA 130315Z AUTO 23006KT 10SM CLR 04/M09 A2995 RMK AO2 T00351091
KOGA 130255Z AUTO 24004KT 10SM CLR 04/M09 A2996 RMK AO2 T00381087
KOGA 130235Z AUTO 24005KT 10SM CLR 02/M09 A2997 RMK AO2 T00231088
KOGA 130215Z AUTO 27006KT 10SM CLR 04/M09 A2998 RMK AO2 T00391089
KOGA 130155Z AUTO 28004KT 10SM CLR 04/M09 A2999 RMK AO2 T00441089
KOGA 130135Z AUTO 26005KT 10SM CLR 04/M09 A2999 RMK AO2 T00371090
KOGA 130115Z AUTO 26005KT 10SM CLR 06/M09 A2999 RMK AO2 T00561089
KOGA 130055Z AUTO 28005KT 10SM CLR 04/M09 A3000 RMK AO2 T00411094
KOGA 130035Z AUTO 27003KT 10SM CLR 05/M09 A3000 RMK AO2 T00481093
KOGA 130015Z AUTO 25007KT 10SM CLR 05/M10 A3000 RMK AO2 T00511096
KOGA 122355Z AUTO 30004KT 10SM CLR 08/M09 A3002 RMK AO2 T00811088 10178 20055
KOGA 122335Z AUTO 29006KT 10SM CLR 08/M09 A3002 RMK AO2 T00771090
KOGA 122315Z AUTO 28006KT 10SM CLR 10/M08 A3002 RMK AO2 T00981085
KOGA 122255Z AUTO 27006KT 10SM CLR 14/M08 A3003 RMK AO2 T01421084
KOGA 122235Z AUTO 28007KT 10SM CLR 16/M08 A3004 RMK AO2 T01601081
KOGA 122215Z AUTO 28010KT 10SM CLR 17/M08 A3005 RMK AO2 T01731084
KOGA 122155Z AUTO 28011KT 10SM CLR 18/M08 A3005 RMK AO2 T01781085
KOGA 122135Z AUTO 29011KT 10SM CLR 18/M08 A3006 RMK AO2 T01761079
KOGA 122115Z AUTO 31011KT 10SM CLR 17/M08 A3007 RMK AO2 T01741081
KOGA 122055Z AUTO 29015KT 10SM CLR 17/M08 A3008 RMK AO2 T01731084
KOGA 122035Z AUTO 28014KT 10SM CLR 17/M08 A3009 RMK AO2 T01741083
KOGA 122015Z AUTO 29015KT 10SM CLR 17/M08 A3011 RMK AO2 T01711084
KOGA 121955Z AUTO 28014KT 10SM CLR 17/M08 A3012 RMK AO2 T01691083
KOGA 121935Z AUTO 29015KT 10SM CLR 16/M08 A3014 RMK AO2 T01621085
KOGA 121915Z AUTO 30020KT 10SM CLR 16/M08 A3016 RMK AO2 T01571085
KOGA 121855Z AUTO 26004KT 10SM CLR 12/M06 A3018 RMK AO2 T01221061
KOGA 121835Z AUTO 26005KT 10SM CLR 11/M06 A3019 RMK AO2 T01061061
KOGA 121815Z AUTO 24007KT 10SM CLR 10/M06 A3020 RMK AO2 T01001059
KOGA 121755Z AUTO 25007KT 10SM CLR 09/M06 A3021 RMK AO2 T00881057 10088 21093
KOGA 121735Z AUTO 22006KT 10SM CLR 07/M06 A3023 RMK AO2 T00681058
KOGA 121715Z AUTO 24008KT 7SM CLR 05/M06 A3024 RMK AO2 T00521057
KOGA 121655Z AUTO 25009KT 10SM CLR 04/M06 A3026 RMK AO2 T00361059
KOGA 121635Z AUTO 24007KT 10SM CLR 02/M06 A3027 RMK AO2 T00161062
KOGA 121615Z AUTO 24007KT 10SM CLR 00/M06 A3027 RMK AO2 T00031062
KOGA 121555Z AUTO 24008KT 10SM CLR M01/M07 A3027 RMK AO2 T10121067
KOGA 121535Z AUTO 24007KT 10SM CLR M03/M08 A3027 RMK AO2 T10301076
KOGA 121515Z AUTO 24005KT 10SM CLR M05/M08 A3028 RMK AO2 T10471085
KOGA 121455Z AUTO 22003KT 10SM CLR M06/M09 A3028 RMK AO2 T10601094
KOGA 121435Z AUTO 23004KT 10SM CLR M07/M10 A3029 RMK AO2 T10691100
KOGA 121415Z AUTO 24007KT 10SM CLR M07/M10 A3029 RMK AO2 T10711102
KOGA 121355Z AUTO 24005KT 10SM CLR M07/M10 A3029 RMK AO2 T10751103
KOGA 121335Z AUTO 25006KT 10SM CLR M09/M11 A3030 RMK AO2 T10871111
KOGA 121315Z AUTO 24005KT 10SM CLR M09/M11 A3030 RMK AO2 T10881115
KOGA 121255Z AUTO 25006KT 10SM CLR M08/M11 A3031 RMK AO2 T10841111
KOGA 121235Z AUTO 25006KT 10SM CLR M09/M12 A3031 RMK AO2 T10921118
KOGA 121215Z AUTO 25003KT 10SM CLR M08/M11 A3032 RMK AO2 T10851113
KOGA 121155Z AUTO 00000KT 10SM CLR M09/M11 A3033 RMK AO2 T10901115 11077 21105
KOGA 121135Z AUTO 25006KT 10SM CLR M09/M11 A3033 RMK AO2 T10891115
KOGA 121115Z AUTO 26006KT 10SM CLR M09/M11 A3034 RMK AO2 T10881111
KOGA 121055Z AUTO 25007KT 10SM CLR M10/M12 A3035 RMK AO2 T10981120
KOGA 121035Z AUTO 26004KT 10SM CLR M10/M12 A3035 RMK AO2 T10961118
KOGA 121015Z AUTO 24004KT 10SM CLR M10/M12 A3036 RMK AO2 T11051125
KOGA 120955Z AUTO 25006KT 10SM CLR M10/M12 A3037 RMK AO2 T10991121
KOGA 120935Z AUTO 27004KT 10SM CLR M10/M12 A3038 RMK AO2 T10961120
KOGA 120915Z AUTO 26004KT 10SM CLR M09/M11 A3039 RMK AO2 T10881110
KOGA 120855Z AUTO 27003KT 10SM CLR M08/M11 A3040 RMK AO2 T10851107
KOGA 120835Z AUTO 26005KT 10SM CLR M09/M11 A3040 RMK AO2 T10891110
KOGA 120815Z AUTO 26004KT 10SM CLR M09/M11 A3040 RMK AO2 T10911112
KOGA 120755Z AUTO 26006KT 10SM CLR M09/M11 A3041 RMK AO2 T10901113
KOGA 120735Z AUTO 25005KT 10SM CLR M09/M11 A3041 RMK AO2 T10881110
KOGA 120715Z AUTO 24004KT 10SM CLR M09/M11 A3041 RMK AO2 T10871107
KOGA 120655Z AUTO 27004KT 10SM CLR M08/M10 A3041 RMK AO2 T10791099 401171095
KOGA 120635Z AUTO 25007KT 10SM CLR M09/M12 A3042 RMK AO2 T10951117
KOGA 120615Z AUTO 25007KT 10SM CLR M09/M11 A3042 RMK AO2 T10901114
KOGA 120555Z AUTO 00000KT 10SM CLR M08/M10 A3043 RMK AO2 T10761105 10051 21080
KOGA 120535Z AUTO 28004KT 10SM CLR M07/M10 A3042 RMK AO2 T10711100
KOGA 120515Z AUTO 27003KT 10SM CLR M08/M10 A3042 RMK AO2 T10781102
KOGA 120455Z AUTO 24006KT 10SM CLR M08/M10 A3042 RMK AO2 T10761103
KOGA 120435Z AUTO 00000KT 10SM CLR M06/M09 A3042 RMK AO2 T10651094
KOGA 120415Z AUTO 29004KT 10SM CLR M06/M10 A3042 RMK AO2 T10621096
KOGA 120355Z AUTO 25007KT 10SM CLR M06/M09 A3042 RMK AO2 T10601094
KOGA 120335Z AUTO 23004KT 10SM CLR M07/M10 A3041 RMK AO2 T10661097
KOGA 120315Z AUTO 26007KT 10SM CLR M06/M10 A3041 RMK AO2 T10621099
KOGA 120255Z AUTO 27007KT 10SM CLR M05/M09 A3040 RMK AO2 T10521091
KOGA 120235Z AUTO 27007KT 10SM CLR M05/M09 A3040 RMK AO2 T10511093
KOGA 120215Z AUTO 27007KT 10SM CLR M03/M08 A3039 RMK AO2 T10331081
KOGA 120155Z AUTO 27004KT 10SM CLR M02/M08 A3039 RMK AO2 T10251078
KOGA 120135Z AUTO 26004KT 10SM CLR M04/M09 A3039 RMK AO2 T10381091
KOGA 120115Z AUTO 34004KT 10SM CLR 00/M07 A3038 RMK AO2 T10011068
KOGA 120055Z AUTO 36007KT 10SM CLR 01/M06 A3038 RMK AO2 T00111065
KOGA 120035Z AUTO 01008KT 10SM CLR 02/M07 A3037 RMK AO2 T00241066
KOGA 120015Z AUTO 01008KT 10SM CLR 04/M07 A3037 RMK AO2 T00411066
KOGA 112355Z AUTO 02009KT 10SM SCT120 05/M06 A3035 RMK AO2 T00511065 10117 20051
KOGA 112335Z AUTO 36011KT 10SM BKN120 07/M07 A3034 RMK AO2 T00691066
KOGA 112315Z AUTO 35009KT 10SM OVC120 08/M08 A3032 RMK AO2 T00761077
KOGA 112255Z AUTO 36011KT 10SM BKN120 08/M07 A3032 RMK AO2 T00811073
KOGA 112235Z AUTO 35015KT 10SM CLR 08/M08 A3031 RMK AO2 T00841081
KOGA 112215Z AUTO 36014G20KT 10SM CLR 09/M09 A3030 RMK AO2 T00881092
KOGA 112155Z AUTO 34016G24KT 10SM SCT065 10/M10 A3029 RMK AO2 T01011096
KOGA 112135Z AUTO 34018G26KT 10SM CLR 11/M09 A3028 RMK AO2 T01101094